sensor_id;sensor_type;location;lat;lon;timestamp;P1;durP1;ratioP1;P2;durP2;ratioP2
27013;SDS011;14556;52.222;4.510;2024-02-14T00:01:56;8.10;;;5.37;;
27013;SDS011;14556;52.222;4.510;2024-02-14T00:04:22;8.33;;;6.23;;
27013;SDS011;14556;52.222;4.510;2024-02-14T00:06:49;8.33;;;5.30;;
27013;SDS011;14556;52.222;4.510;2024-02-14T00:09:15;7.37;;;5.20;;
27013;SDS011;14556;52.222;4.510;2024-02-14T00:11:42;8.70;;;5.70;;
27013;SDS011;14556;52.222;4.510;2024-02-14T00:14:08;6.93;;;4.90;;
27013;SDS011;14556;52.222;4.510;2024-02-14T00:16:35;9.97;;;5.50;;
27013;SDS011;14556;52.222;4.510;2024-02-14T00:19:03;9.50;;;5.53;;
27013;SDS011;14556;52.222;4.510;2024-02-14T00:21:29;7.63;;;5.17;;
27013;SDS011;14556;52.222;4.510;2024-02-14T00:24:00;8.47;;;5.37;;
27013;SDS011;14556;52.222;4.510;2024-02-14T00:26:28;8.33;;;6.00;;
27013;SDS011;14556;52.222;4.510;2024-02-14T00:28:54;8.17;;;6.60;;
27013;SDS011;14556;52.222;4.510;2024-02-14T00:31:21;8.33;;;5.63;;
27013;SDS011;14556;52.222;4.510;2024-02-14T00:33:47;9.80;;;5.90;;
27013;SDS011;14556;52.222;4.510;2024-02-14T00:36:14;8.73;;;6.00;;
27013;SDS011;14556;52.222;4.510;2024-02-14T00:38:41;9.97;;;6.37;;
27013;SDS011;14556;52.222;4.510;2024-02-14T00:41:07;8.73;;;5.73;;
27013;SDS011;14556;52.222;4.510;2024-02-14T00:43:34;9.17;;;5.80;;
27013;SDS011;14556;52.222;4.510;2024-02-14T00:46:00;9.00;;;6.23;;
27013;SDS011;14556;52.222;4.510;2024-02-14T00:48:26;9.60;;;6.90;;
27013;SDS011;14556;52.222;4.510;2024-02-14T00:50:53;10.67;;;7.50;;
27013;SDS011;14556;52.222;4.510;2024-02-14T00:53:20;8.17;;;6.17;;
27013;SDS011;14556;52.222;4.510;2024-02-14T00:55:48;12.83;;;5.53;;
27013;SDS011;14556;52.222;4.510;2024-02-14T00:58:14;12.70;;;7.17;;
27013;SDS011;14556;52.222;4.510;2024-02-14T01:00:41;11.23;;;6.97;;
27013;SDS011;14556;52.222;4.510;2024-02-14T01:03:07;9.27;;;6.53;;
27013;SDS011;14556;52.222;4.510;2024-02-14T01:05:34;8.07;;;6.53;;
27013;SDS011;14556;52.222;4.510;2024-02-14T01:08:01;12.87;;;7.07;;
27013;SDS011;14556;52.222;4.510;2024-02-14T01:10:27;9.60;;;7.07;;
27013;SDS011;14556;52.222;4.510;2024-02-14T01:12:54;9.83;;;6.97;;
27013;SDS011;14556;52.222;4.510;2024-02-14T01:15:21;8.30;;;6.30;;
27013;SDS011;14556;52.222;4.510;2024-02-14T01:17:48;12.07;;;7.53;;
27013;SDS011;14556;52.222;4.510;2024-02-14T01:20:15;9.03;;;7.27;;
27013;SDS011;14556;52.222;4.510;2024-02-14T01:22:43;11.80;;;7.20;;
27013;SDS011;14556;52.222;4.510;2024-02-14T01:25:09;9.90;;;6.27;;
27013;SDS011;14556;52.222;4.510;2024-02-14T01:27:37;8.37;;;6.80;;
27013;SDS011;14556;52.222;4.510;2024-02-14T01:30:03;8.33;;;6.60;;
27013;SDS011;14556;52.222;4.510;2024-02-14T01:32:32;11.60;;;7.33;;
27013;SDS011;14556;52.222;4.510;2024-02-14T01:34:58;11.00;;;7.10;;
27013;SDS011;14556;52.222;4.510;2024-02-14T01:37:28;8.57;;;6.27;;
27013;SDS011;14556;52.222;4.510;2024-02-14T01:39:55;12.17;;;6.77;;
27013;SDS011;14556;52.222;4.510;2024-02-14T01:42:22;10.73;;;6.53;;
27013;SDS011;14556;52.222;4.510;2024-02-14T01:44:48;9.00;;;5.73;;
27013;SDS011;14556;52.222;4.510;2024-02-14T01:47:15;10.87;;;5.60;;
27013;SDS011;14556;52.222;4.510;2024-02-14T01:49:41;7.73;;;6.00;;
27013;SDS011;14556;52.222;4.510;2024-02-14T01:52:11;9.60;;;5.13;;
27013;SDS011;14556;52.222;4.510;2024-02-14T01:54:37;11.73;;;5.13;;
27013;SDS011;14556;52.222;4.510;2024-02-14T01:57:04;8.90;;;5.23;;
27013;SDS011;14556;52.222;4.510;2024-02-14T01:59:31;8.80;;;4.23;;
27013;SDS011;14556;52.222;4.510;2024-02-14T02:01:57;9.50;;;3.87;;
27013;SDS011;14556;52.222;4.510;2024-02-14T02:04:24;4.97;;;3.63;;
27013;SDS011;14556;52.222;4.510;2024-02-14T02:06:51;7.30;;;3.67;;
27013;SDS011;14556;52.222;4.510;2024-02-14T02:09:22;5.07;;;2.93;;
27013;SDS011;14556;52.222;4.510;2024-02-14T02:11:49;5.40;;;3.47;;
27013;SDS011;14556;52.222;4.510;2024-02-14T02:14:16;4.00;;;3.07;;
27013;SDS011;14556;52.222;4.510;2024-02-14T02:16:43;5.17;;;3.30;;
27013;SDS011;14556;52.222;4.510;2024-02-14T02:19:09;3.83;;;3.20;;
27013;SDS011;14556;52.222;4.510;2024-02-14T02:21:36;5.97;;;3.07;;
27013;SDS011;14556;52.222;4.510;2024-02-14T02:24:02;6.53;;;3.30;;
27013;SDS011;14556;52.222;4.510;2024-02-14T02:26:29;5.73;;;2.67;;
27013;SDS011;14556;52.222;4.510;2024-02-14T02:28:58;8.17;;;3.93;;
27013;SDS011;14556;52.222;4.510;2024-02-14T02:31:26;5.10;;;3.13;;
27013;SDS011;14556;52.222;4.510;2024-02-14T02:33:52;7.83;;;3.63;;
27013;SDS011;14556;52.222;4.510;2024-02-14T02:36:19;7.57;;;4.20;;
27013;SDS011;14556;52.222;4.510;2024-02-14T02:38:45;6.40;;;3.40;;
27013;SDS011;14556;52.222;4.510;2024-02-14T02:41:12;12.67;;;5.03;;
27013;SDS011;14556;52.222;4.510;2024-02-14T02:43:38;8.57;;;4.00;;
27013;SDS011;14556;52.222;4.510;2024-02-14T02:46:05;7.07;;;3.80;;
27013;SDS011;14556;52.222;4.510;2024-02-14T02:48:31;11.40;;;3.67;;
27013;SDS011;14556;52.222;4.510;2024-02-14T02:50:58;11.17;;;4.43;;
27013;SDS011;14556;52.222;4.510;2024-02-14T02:53:25;13.30;;;4.90;;
27013;SDS011;14556;52.222;4.510;2024-02-14T02:55:54;10.47;;;4.07;;
27013;SDS011;14556;52.222;4.510;2024-02-14T02:58:23;16.73;;;4.27;;
27013;SDS011;14556;52.222;4.510;2024-02-14T03:00:50;13.00;;;4.37;;
27013;SDS011;14556;52.222;4.510;2024-02-14T03:03:17;11.60;;;3.73;;
27013;SDS011;14556;52.222;4.510;2024-02-14T03:05:43;9.23;;;3.70;;
27013;SDS011;14556;52.222;4.510;2024-02-14T03:08:11;8.40;;;3.50;;
27013;SDS011;14556;52.222;4.510;2024-02-14T03:10:41;9.40;;;3.97;;
27013;SDS011;14556;52.222;4.510;2024-02-14T03:13:08;10.00;;;3.50;;
27013;SDS011;14556;52.222;4.510;2024-02-14T03:15:40;17.97;;;4.27;;
27013;SDS011;14556;52.222;4.510;2024-02-14T03:18:07;8.93;;;3.10;;
27013;SDS011;14556;52.222;4.510;2024-02-14T03:20:34;14.77;;;3.10;;
27013;SDS011;14556;52.222;4.510;2024-02-14T03:23:01;9.63;;;2.93;;
27013;SDS011;14556;52.222;4.510;2024-02-14T03:25:30;9.87;;;2.40;;
27013;SDS011;14556;52.222;4.510;2024-02-14T03:27:58;11.43;;;3.00;;
27013;SDS011;14556;52.222;4.510;2024-02-14T03:30:25;8.80;;;2.80;;
27013;SDS011;14556;52.222;4.510;2024-02-14T03:32:53;14.40;;;2.87;;
27013;SDS011;14556;52.222;4.510;2024-02-14T03:35:22;14.20;;;3.13;;
27013;SDS011;14556;52.222;4.510;2024-02-14T03:37:49;11.67;;;2.87;;
27013;SDS011;14556;52.222;4.510;2024-02-14T03:40:17;8.50;;;2.20;;
27013;SDS011;14556;52.222;4.510;2024-02-14T03:42:44;9.23;;;2.47;;
27013;SDS011;14556;52.222;4.510;2024-02-14T03:45:12;13.53;;;3.03;;
27013;SDS011;14556;52.222;4.510;2024-02-14T03:47:39;13.87;;;3.27;;
27013;SDS011;14556;52.222;4.510;2024-02-14T03:50:07;12.13;;;2.93;;
27013;SDS011;14556;52.222;4.510;2024-02-14T03:52:34;8.13;;;2.80;;
27013;SDS011;14556;52.222;4.510;2024-02-14T03:55:01;9.60;;;2.17;;
27013;SDS011;14556;52.222;4.510;2024-02-14T03:57:28;9.23;;;2.67;;
27013;SDS011;14556;52.222;4.510;2024-02-14T03:59:57;9.73;;;3.10;;
27013;SDS011;14556;52.222;4.510;2024-02-14T04:02:24;15.23;;;2.97;;
27013;SDS011;14556;52.222;4.510;2024-02-14T04:04:50;11.63;;;3.33;;
27013;SDS011;14556;52.222;4.510;2024-02-14T04:07:18;7.60;;;2.57;;
27013;SDS011;14556;52.222;4.510;2024-02-14T04:09:44;10.97;;;3.20;;
27013;SDS011;14556;52.222;4.510;2024-02-14T04:12:11;11.37;;;3.27;;
27013;SDS011;14556;52.222;4.510;2024-02-14T04:14:38;14.30;;;3.20;;
27013;SDS011;14556;52.222;4.510;2024-02-14T04:17:04;10.17;;;2.53;;
27013;SDS011;14556;52.222;4.510;2024-02-14T04:19:34;12.73;;;2.77;;
27013;SDS011;14556;52.222;4.510;2024-02-14T04:22:02;17.47;;;3.47;;
27013;SDS011;14556;52.222;4.510;2024-02-14T04:24:28;12.87;;;4.07;;
27013;SDS011;14556;52.222;4.510;2024-02-14T04:26:55;7.73;;;3.23;;
27013;SDS011;14556;52.222;4.510;2024-02-14T04:29:22;9.20;;;3.60;;
27013;SDS011;14556;52.222;4.510;2024-02-14T04:31:49;11.23;;;3.10;;
27013;SDS011;14556;52.222;4.510;2024-02-14T04:34:15;8.03;;;2.50;;
27013;SDS011;14556;52.222;4.510;2024-02-14T04:36:43;6.30;;;1.87;;
27013;SDS011;14556;52.222;4.510;2024-02-14T04:39:13;11.80;;;2.57;;
27013;SDS011;14556;52.222;4.510;2024-02-14T04:41:39;10.27;;;2.67;;
27013;SDS011;14556;52.222;4.510;2024-02-14T04:44:22;14.67;;;2.57;;
27013;SDS011;14556;52.222;4.510;2024-02-14T04:46:49;7.53;;;2.80;;
27013;SDS011;14556;52.222;4.510;2024-02-14T04:49:15;13.90;;;2.73;;
27013;SDS011;14556;52.222;4.510;2024-02-14T04:51:42;9.23;;;2.60;;
27013;SDS011;14556;52.222;4.510;2024-02-14T04:54:08;14.03;;;2.57;;
27013;SDS011;14556;52.222;4.510;2024-02-14T04:56:36;17.23;;;3.17;;
27013;SDS011;14556;52.222;4.510;2024-02-14T04:59:03;13.63;;;2.90;;
27013;SDS011;14556;52.222;4.510;2024-02-14T05:01:31;13.07;;;2.80;;
27013;SDS011;14556;52.222;4.510;2024-02-14T05:03:58;29.20;;;3.90;;
27013;SDS011;14556;52.222;4.510;2024-02-14T05:06:24;6.60;;;2.60;;
27013;SDS011;14556;52.222;4.510;2024-02-14T05:08:51;10.53;;;2.80;;
27013;SDS011;14556;52.222;4.510;2024-02-14T05:11:17;13.80;;;3.80;;
27013;SDS011;14556;52.222;4.510;2024-02-14T05:13:44;14.97;;;3.67;;
27013;SDS011;14556;52.222;4.510;2024-02-14T05:16:11;13.60;;;3.40;;
27013;SDS011;14556;52.222;4.510;2024-02-14T05:18:38;5.97;;;2.70;;
27013;SDS011;14556;52.222;4.510;2024-02-14T05:21:07;12.20;;;2.73;;
27013;SDS011;14556;52.222;4.510;2024-02-14T05:23:34;7.00;;;2.57;;
27013;SDS011;14556;52.222;4.510;2024-02-14T05:26:05;12.53;;;3.93;;
27013;SDS011;14556;52.222;4.510;2024-02-14T05:28:31;10.90;;;2.60;;
27013;SDS011;14556;52.222;4.510;2024-02-14T05:30:59;9.97;;;3.00;;
27013;SDS011;14556;52.222;4.510;2024-02-14T05:33:25;10.53;;;3.53;;
27013;SDS011;14556;52.222;4.510;2024-02-14T05:35:52;13.50;;;3.07;;
27013;SDS011;14556;52.222;4.510;2024-02-14T05:38:19;15.50;;;2.97;;
27013;SDS011;14556;52.222;4.510;2024-02-14T05:40:48;11.97;;;2.80;;
27013;SDS011;14556;52.222;4.510;2024-02-14T05:43:15;9.80;;;2.83;;
27013;SDS011;14556;52.222;4.510;2024-02-14T05:45:42;8.67;;;2.90;;
27013;SDS011;14556;52.222;4.510;2024-02-14T05:48:12;8.47;;;3.37;;
27013;SDS011;14556;52.222;4.510;2024-02-14T05:50:39;7.47;;;2.50;;
27013;SDS011;14556;52.222;4.510;2024-02-14T05:53:05;12.17;;;3.20;;
27013;SDS011;14556;52.222;4.510;2024-02-14T05:55:32;7.00;;;2.63;;
27013;SDS011;14556;52.222;4.510;2024-02-14T05:57:59;9.33;;;2.90;;
27013;SDS011;14556;52.222;4.510;2024-02-14T06:00:28;16.40;;;4.73;;
27013;SDS011;14556;52.222;4.510;2024-02-14T06:02:55;7.53;;;2.90;;
27013;SDS011;14556;52.222;4.510;2024-02-14T06:05:22;17.50;;;2.90;;
27013;SDS011;14556;52.222;4.510;2024-02-14T06:07:49;6.23;;;3.23;;
27013;SDS011;14556;52.222;4.510;2024-02-14T06:10:16;16.57;;;2.67;;
27013;SDS011;14556;52.222;4.510;2024-02-14T06:12:44;17.60;;;3.97;;
27013;SDS011;14556;52.222;4.510;2024-02-14T06:15:13;13.20;;;4.10;;
27013;SDS011;14556;52.222;4.510;2024-02-14T06:17:41;10.07;;;3.70;;
27013;SDS011;14556;52.222;4.510;2024-02-14T06:20:15;15.60;;;3.63;;
27013;SDS011;14556;52.222;4.510;2024-02-14T06:22:42;14.17;;;3.97;;
27013;SDS011;14556;52.222;4.510;2024-02-14T06:25:22;10.10;;;3.97;;
27013;SDS011;14556;52.222;4.510;2024-02-14T06:27:49;12.93;;;3.80;;
27013;SDS011;14556;52.222;4.510;2024-02-14T06:30:16;9.23;;;3.57;;
27013;SDS011;14556;52.222;4.510;2024-02-14T06:32:45;11.10;;;3.87;;
27013;SDS011;14556;52.222;4.510;2024-02-14T06:35:12;14.03;;;4.50;;
27013;SDS011;14556;52.222;4.510;2024-02-14T06:37:41;6.43;;;3.30;;
27013;SDS011;14556;52.222;4.510;2024-02-14T06:40:21;16.17;;;4.70;;
27013;SDS011;14556;52.222;4.510;2024-02-14T06:42:47;13.90;;;4.40;;
27013;SDS011;14556;52.222;4.510;2024-02-14T06:45:17;8.47;;;3.67;;
27013;SDS011;14556;52.222;4.510;2024-02-14T06:47:43;13.53;;;4.83;;
27013;SDS011;14556;52.222;4.510;2024-02-14T06:50:10;18.50;;;4.73;;
27013;SDS011;14556;52.222;4.510;2024-02-14T06:52:37;17.83;;;4.20;;
27013;SDS011;14556;52.222;4.510;2024-02-14T06:55:03;10.40;;;4.67;;
27013;SDS011;14556;52.222;4.510;2024-02-14T06:57:30;9.33;;;5.40;;
27013;SDS011;14556;52.222;4.510;2024-02-14T06:59:56;14.83;;;4.83;;
27013;SDS011;14556;52.222;4.510;2024-02-14T07:02:23;14.00;;;4.80;;
27013;SDS011;14556;52.222;4.510;2024-02-14T07:04:54;14.00;;;5.77;;
27013;SDS011;14556;52.222;4.510;2024-02-14T07:07:21;20.03;;;5.93;;
27013;SDS011;14556;52.222;4.510;2024-02-14T07:09:50;10.63;;;5.10;;
27013;SDS011;14556;52.222;4.510;2024-02-14T07:12:16;12.80;;;5.67;;
27013;SDS011;14556;52.222;4.510;2024-02-14T07:14:46;14.10;;;6.60;;
27013;SDS011;14556;52.222;4.510;2024-02-14T07:17:12;14.33;;;6.40;;
27013;SDS011;14556;52.222;4.510;2024-02-14T07:19:41;12.40;;;5.47;;
27013;SDS011;14556;52.222;4.510;2024-02-14T07:22:14;13.50;;;6.50;;
27013;SDS011;14556;52.222;4.510;2024-02-14T07:24:42;11.73;;;5.30;;
27013;SDS011;14556;52.222;4.510;2024-02-14T07:27:14;15.30;;;4.93;;
27013;SDS011;14556;52.222;4.510;2024-02-14T07:29:41;11.60;;;5.03;;
27013;SDS011;14556;52.222;4.510;2024-02-14T07:32:07;16.13;;;5.10;;
27013;SDS011;14556;52.222;4.510;2024-02-14T07:34:40;12.40;;;4.90;;
27013;SDS011;14556;52.222;4.510;2024-02-14T07:37:07;14.43;;;5.50;;
27013;SDS011;14556;52.222;4.510;2024-02-14T07:39:33;13.93;;;5.23;;
27013;SDS011;14556;52.222;4.510;2024-02-14T07:42:03;18.03;;;5.97;;
27013;SDS011;14556;52.222;4.510;2024-02-14T07:44:30;15.47;;;5.17;;
27013;SDS011;14556;52.222;4.510;2024-02-14T07:46:57;10.87;;;5.87;;
27013;SDS011;14556;52.222;4.510;2024-02-14T07:49:31;14.77;;;5.07;;
27013;SDS011;14556;52.222;4.510;2024-02-14T07:51:58;14.97;;;4.33;;
27013;SDS011;14556;52.222;4.510;2024-02-14T07:54:24;11.87;;;4.50;;
27013;SDS011;14556;52.222;4.510;2024-02-14T07:56:51;15.50;;;4.37;;
27013;SDS011;14556;52.222;4.510;2024-02-14T07:59:17;10.47;;;4.10;;
27013;SDS011;14556;52.222;4.510;2024-02-14T08:01:44;13.90;;;4.30;;
27013;SDS011;14556;52.222;4.510;2024-02-14T08:04:10;8.87;;;3.53;;
27013;SDS011;14556;52.222;4.510;2024-02-14T08:06:37;10.77;;;4.20;;
27013;SDS011;14556;52.222;4.510;2024-02-14T08:09:04;12.03;;;3.87;;
27013;SDS011;14556;52.222;4.510;2024-02-14T08:11:33;11.50;;;4.33;;
27013;SDS011;14556;52.222;4.510;2024-02-14T08:13:59;8.47;;;3.63;;
27013;SDS011;14556;52.222;4.510;2024-02-14T08:16:26;8.67;;;4.40;;
27013;SDS011;14556;52.222;4.510;2024-02-14T08:18:52;9.50;;;3.63;;
27013;SDS011;14556;52.222;4.510;2024-02-14T08:21:26;16.03;;;3.87;;
27013;SDS011;14556;52.222;4.510;2024-02-14T08:23:57;8.70;;;3.33;;
27013;SDS011;14556;52.222;4.510;2024-02-14T08:26:28;8.97;;;2.90;;
27013;SDS011;14556;52.222;4.510;2024-02-14T08:28:55;6.50;;;2.57;;
27013;SDS011;14556;52.222;4.510;2024-02-14T08:31:21;7.63;;;3.57;;
27013;SDS011;14556;52.222;4.510;2024-02-14T08:33:48;8.33;;;3.10;;
27013;SDS011;14556;52.222;4.510;2024-02-14T08:36:15;8.17;;;2.93;;
27013;SDS011;14556;52.222;4.510;2024-02-14T08:38:43;8.57;;;3.10;;
27013;SDS011;14556;52.222;4.510;2024-02-14T08:41:10;8.60;;;3.40;;
27013;SDS011;14556;52.222;4.510;2024-02-14T08:43:36;5.60;;;3.20;;
27013;SDS011;14556;52.222;4.510;2024-02-14T08:46:09;5.50;;;3.03;;
27013;SDS011;14556;52.222;4.510;2024-02-14T08:48:40;4.53;;;3.10;;
27013;SDS011;14556;52.222;4.510;2024-02-14T08:51:14;7.00;;;3.57;;
27013;SDS011;14556;52.222;4.510;2024-02-14T08:53:41;4.13;;;2.77;;
27013;SDS011;14556;52.222;4.510;2024-02-14T08:56:10;9.13;;;3.50;;
27013;SDS011;14556;52.222;4.510;2024-02-14T08:58:37;7.80;;;3.30;;
27013;SDS011;14556;52.222;4.510;2024-02-14T09:01:04;6.57;;;3.43;;
27013;SDS011;14556;52.222;4.510;2024-02-14T09:03:40;9.80;;;3.50;;
27013;SDS011;14556;52.222;4.510;2024-02-14T09:06:10;7.40;;;3.17;;
27013;SDS011;14556;52.222;4.510;2024-02-14T09:08:37;6.83;;;3.60;;
27013;SDS011;14556;52.222;4.510;2024-02-14T09:11:04;7.50;;;3.37;;
27013;SDS011;14556;52.222;4.510;2024-02-14T09:13:31;4.70;;;3.13;;
27013;SDS011;14556;52.222;4.510;2024-02-14T09:15:57;7.60;;;3.37;;
27013;SDS011;14556;52.222;4.510;2024-02-14T09:18:24;5.77;;;2.70;;
27013;SDS011;14556;52.222;4.510;2024-02-14T09:20:52;4.87;;;2.77;;
27013;SDS011;14556;52.222;4.510;2024-02-14T09:23:19;5.50;;;3.20;;
27013;SDS011;14556;52.222;4.510;2024-02-14T09:25:47;4.37;;;2.80;;
27013;SDS011;14556;52.222;4.510;2024-02-14T09:28:13;6.33;;;3.40;;
27013;SDS011;14556;52.222;4.510;2024-02-14T09:30:40;4.97;;;3.00;;
27013;SDS011;14556;52.222;4.510;2024-02-14T09:33:07;3.60;;;2.87;;
27013;SDS011;14556;52.222;4.510;2024-02-14T09:35:34;5.60;;;3.30;;
27013;SDS011;14556;52.222;4.510;2024-02-14T09:38:02;7.23;;;3.53;;
27013;SDS011;14556;52.222;4.510;2024-02-14T09:40:29;6.67;;;2.87;;
27013;SDS011;14556;52.222;4.510;2024-02-14T09:42:56;4.30;;;2.73;;
27013;SDS011;14556;52.222;4.510;2024-02-14T09:45:24;5.73;;;2.93;;
27013;SDS011;14556;52.222;4.510;2024-02-14T09:47:52;4.87;;;3.20;;
27013;SDS011;14556;52.222;4.510;2024-02-14T09:50:19;7.20;;;3.70;;
27013;SDS011;14556;52.222;4.510;2024-02-14T09:52:47;7.30;;;3.70;;
27013;SDS011;14556;52.222;4.510;2024-02-14T09:55:17;5.80;;;3.07;;
27013;SDS011;14556;52.222;4.510;2024-02-14T09:57:44;5.03;;;3.60;;
27013;SDS011;14556;52.222;4.510;2024-02-14T10:00:11;8.37;;;4.20;;
27013;SDS011;14556;52.222;4.510;2024-02-14T10:02:38;6.97;;;3.60;;
27013;SDS011;14556;52.222;4.510;2024-02-14T10:05:04;6.83;;;3.83;;
27013;SDS011;14556;52.222;4.510;2024-02-14T10:07:39;5.10;;;3.17;;
27013;SDS011;14556;52.222;4.510;2024-02-14T10:10:06;5.50;;;3.70;;
27013;SDS011;14556;52.222;4.510;2024-02-14T10:12:34;5.30;;;3.10;;
27013;SDS011;14556;52.222;4.510;2024-02-14T10:15:01;4.97;;;2.73;;
27013;SDS011;14556;52.222;4.510;2024-02-14T10:17:28;4.07;;;3.20;;
27013;SDS011;14556;52.222;4.510;2024-02-14T10:19:58;3.73;;;2.90;;
27013;SDS011;14556;52.222;4.510;2024-02-14T10:22:32;4.57;;;2.83;;
27013;SDS011;14556;52.222;4.510;2024-02-14T10:24:58;2.90;;;2.43;;
27013;SDS011;14556;52.222;4.510;2024-02-14T10:27:25;5.00;;;3.27;;
27013;SDS011;14556;52.222;4.510;2024-02-14T10:29:51;6.93;;;2.77;;
27013;SDS011;14556;52.222;4.510;2024-02-14T10:32:18;3.80;;;2.87;;
27013;SDS011;14556;52.222;4.510;2024-02-14T10:34:48;3.50;;;2.60;;
27013;SDS011;14556;52.222;4.510;2024-02-14T10:37:15;4.33;;;2.50;;
27013;SDS011;14556;52.222;4.510;2024-02-14T10:39:45;3.03;;;2.27;;
27013;SDS011;14556;52.222;4.510;2024-02-14T10:42:13;3.90;;;2.90;;
27013;SDS011;14556;52.222;4.510;2024-02-14T10:44:42;4.10;;;3.23;;
27013;SDS011;14556;52.222;4.510;2024-02-14T10:47:11;6.13;;;3.07;;
27013;SDS011;14556;52.222;4.510;2024-02-14T10:49:40;5.03;;;3.10;;
27013;SDS011;14556;52.222;4.510;2024-02-14T10:52:09;4.80;;;3.00;;
27013;SDS011;14556;52.222;4.510;2024-02-14T10:54:36;4.57;;;3.30;;
27013;SDS011;14556;52.222;4.510;2024-02-14T10:57:04;3.87;;;2.97;;
27013;SDS011;14556;52.222;4.510;2024-02-14T10:59:33;4.47;;;3.00;;
27013;SDS011;14556;52.222;4.510;2024-02-14T11:02:01;4.10;;;3.07;;
27013;SDS011;14556;52.222;4.510;2024-02-14T11:04:28;3.27;;;2.90;;
27013;SDS011;14556;52.222;4.510;2024-02-14T11:06:55;7.20;;;3.90;;
27013;SDS011;14556;52.222;4.510;2024-02-14T11:09:32;4.50;;;3.27;;
27013;SDS011;14556;52.222;4.510;2024-02-14T11:12:02;3.70;;;2.80;;
27013;SDS011;14556;52.222;4.510;2024-02-14T11:14:32;3.37;;;2.77;;
27013;SDS011;14556;52.222;4.510;2024-02-14T11:17:02;2.87;;;2.57;;
27013;SDS011;14556;52.222;4.510;2024-02-14T11:19:32;3.97;;;3.00;;
27013;SDS011;14556;52.222;4.510;2024-02-14T11:22:11;3.27;;;2.90;;
27013;SDS011;14556;52.222;4.510;2024-02-14T11:24:40;5.10;;;3.27;;
27013;SDS011;14556;52.222;4.510;2024-02-14T11:27:10;3.73;;;2.97;;
27013;SDS011;14556;52.222;4.510;2024-02-14T11:29:57;4.13;;;3.20;;
27013;SDS011;14556;52.222;4.510;2024-02-14T11:32:27;3.97;;;2.67;;
27013;SDS011;14556;52.222;4.510;2024-02-14T11:34:53;4.80;;;3.30;;
27013;SDS011;14556;52.222;4.510;2024-02-14T11:37:24;4.30;;;2.73;;
27013;SDS011;14556;52.222;4.510;2024-02-14T11:39:53;4.23;;;2.90;;
27013;SDS011;14556;52.222;4.510;2024-02-14T11:42:21;5.67;;;3.00;;
27013;SDS011;14556;52.222;4.510;2024-02-14T11:44:52;4.20;;;2.80;;
27013;SDS011;14556;52.222;4.510;2024-02-14T11:47:22;4.40;;;3.00;;
27013;SDS011;14556;52.222;4.510;2024-02-14T11:49:52;4.13;;;2.80;;
27013;SDS011;14556;52.222;4.510;2024-02-14T11:52:19;4.70;;;3.23;;
27013;SDS011;14556;52.222;4.510;2024-02-14T11:54:46;5.60;;;3.00;;
27013;SDS011;14556;52.222;4.510;2024-02-14T11:57:18;4.03;;;3.13;;
27013;SDS011;14556;52.222;4.510;2024-02-14T11:59:50;4.67;;;3.40;;
27013;SDS011;14556;52.222;4.510;2024-02-14T12:02:19;4.97;;;2.67;;
27013;SDS011;14556;52.222;4.510;2024-02-14T12:04:47;4.20;;;3.30;;
27013;SDS011;14556;52.222;4.510;2024-02-14T12:07:13;5.07;;;2.73;;
27013;SDS011;14556;52.222;4.510;2024-02-14T12:09:40;4.67;;;3.30;;
27013;SDS011;14556;52.222;4.510;2024-02-14T12:12:07;3.73;;;2.80;;
27013;SDS011;14556;52.222;4.510;2024-02-14T12:14:33;3.80;;;2.60;;
27013;SDS011;14556;52.222;4.510;2024-02-14T12:17:01;6.13;;;2.80;;
27013;SDS011;14556;52.222;4.510;2024-02-14T12:19:31;3.80;;;2.60;;
27013;SDS011;14556;52.222;4.510;2024-02-14T12:22:00;3.80;;;2.80;;
27013;SDS011;14556;52.222;4.510;2024-02-14T12:24:27;3.57;;;2.70;;
27013;SDS011;14556;52.222;4.510;2024-02-14T12:26:55;3.67;;;2.90;;
27013;SDS011;14556;52.222;4.510;2024-02-14T12:29:23;4.13;;;2.40;;
27013;SDS011;14556;52.222;4.510;2024-02-14T12:31:49;5.60;;;2.73;;
27013;SDS011;14556;52.222;4.510;2024-02-14T12:34:16;4.03;;;2.73;;
27013;SDS011;14556;52.222;4.510;2024-02-14T12:36:49;5.13;;;2.50;;
27013;SDS011;14556;52.222;4.510;2024-02-14T12:39:15;2.97;;;2.50;;
27013;SDS011;14556;52.222;4.510;2024-02-14T12:41:42;3.60;;;2.70;;
27013;SDS011;14556;52.222;4.510;2024-02-14T12:44:08;2.93;;;2.40;;
27013;SDS011;14556;52.222;4.510;2024-02-14T12:46:35;2.83;;;2.43;;
27013;SDS011;14556;52.222;4.510;2024-02-14T12:49:05;3.40;;;2.13;;
27013;SDS011;14556;52.222;4.510;2024-02-14T12:51:31;2.73;;;2.43;;
27013;SDS011;14556;52.222;4.510;2024-02-14T12:53:59;2.50;;;2.07;;
27013;SDS011;14556;52.222;4.510;2024-02-14T12:56:26;2.97;;;2.07;;
27013;SDS011;14556;52.222;4.510;2024-02-14T12:58:52;2.83;;;2.20;;
27013;SDS011;14556;52.222;4.510;2024-02-14T13:01:19;4.73;;;2.70;;
27013;SDS011;14556;52.222;4.510;2024-02-14T13:03:45;4.23;;;2.47;;
27013;SDS011;14556;52.222;4.510;2024-02-14T13:06:12;4.10;;;3.13;;
27013;SDS011;14556;52.222;4.510;2024-02-14T13:08:40;5.13;;;3.10;;
27013;SDS011;14556;52.222;4.510;2024-02-14T13:11:08;5.40;;;3.10;;
27013;SDS011;14556;52.222;4.510;2024-02-14T13:13:35;6.37;;;3.50;;
27013;SDS011;14556;52.222;4.510;2024-02-14T13:16:02;6.07;;;3.33;;
27013;SDS011;14556;52.222;4.510;2024-02-14T13:18:29;7.60;;;4.00;;
27013;SDS011;14556;52.222;4.510;2024-02-14T13:20:55;6.40;;;3.70;;
27013;SDS011;14556;52.222;4.510;2024-02-14T13:23:26;6.50;;;4.67;;
27013;SDS011;14556;52.222;4.510;2024-02-14T13:25:52;6.03;;;3.40;;
27013;SDS011;14556;52.222;4.510;2024-02-14T13:28:20;10.13;;;4.10;;
27013;SDS011;14556;52.222;4.510;2024-02-14T13:30:50;5.20;;;3.67;;
27013;SDS011;14556;52.222;4.510;2024-02-14T13:33:19;10.10;;;4.40;;
27013;SDS011;14556;52.222;4.510;2024-02-14T13:35:46;6.63;;;4.07;;
27013;SDS011;14556;52.222;4.510;2024-02-14T13:38:12;4.20;;;3.17;;
27013;SDS011;14556;52.222;4.510;2024-02-14T13:40:39;4.67;;;2.97;;
27013;SDS011;14556;52.222;4.510;2024-02-14T13:43:05;8.40;;;3.90;;
27013;SDS011;14556;52.222;4.510;2024-02-14T13:45:42;3.23;;;2.33;;
27013;SDS011;14556;52.222;4.510;2024-02-14T13:48:09;5.00;;;2.00;;
27013;SDS011;14556;52.222;4.510;2024-02-14T13:50:37;4.37;;;2.33;;
27013;SDS011;14556;52.222;4.510;2024-02-14T13:53:06;4.30;;;2.03;;
27013;SDS011;14556;52.222;4.510;2024-02-14T13:55:33;3.53;;;1.50;;
27013;SDS011;14556;52.222;4.510;2024-02-14T13:57:59;3.40;;;2.07;;
27013;SDS011;14556;52.222;4.510;2024-02-14T14:00:26;2.93;;;1.70;;
27013;SDS011;14556;52.222;4.510;2024-02-14T14:02:53;2.27;;;1.40;;
27013;SDS011;14556;52.222;4.510;2024-02-14T14:05:20;2.90;;;1.10;;
27013;SDS011;14556;52.222;4.510;2024-02-14T14:07:48;2.63;;;1.30;;
27013;SDS011;14556;52.222;4.510;2024-02-14T14:10:24;1.47;;;1.20;;
27013;SDS011;14556;52.222;4.510;2024-02-14T14:12:55;1.03;;;0.93;;
27013;SDS011;14556;52.222;4.510;2024-02-14T14:15:21;3.40;;;0.70;;
27013;SDS011;14556;52.222;4.510;2024-02-14T14:17:49;1.03;;;0.80;;
27013;SDS011;14556;52.222;4.510;2024-02-14T14:20:16;0.77;;;0.70;;
27013;SDS011;14556;52.222;4.510;2024-02-14T14:22:46;0.80;;;0.70;;
27013;SDS011;14556;52.222;4.510;2024-02-14T14:25:13;1.60;;;0.60;;
27013;SDS011;14556;52.222;4.510;2024-02-14T14:27:39;1.70;;;0.63;;
27013;SDS011;14556;52.222;4.510;2024-02-14T14:30:06;2.03;;;0.60;;
27013;SDS011;14556;52.222;4.510;2024-02-14T14:32:34;2.00;;;1.03;;
27013;SDS011;14556;52.222;4.510;2024-02-14T14:35:00;2.07;;;0.90;;
27013;SDS011;14556;52.222;4.510;2024-02-14T14:37:27;3.77;;;1.17;;
27013;SDS011;14556;52.222;4.510;2024-02-14T14:39:54;1.00;;;0.67;;
27013;SDS011;14556;52.222;4.510;2024-02-14T14:42:22;2.03;;;0.67;;
27013;SDS011;14556;52.222;4.510;2024-02-14T14:44:49;2.20;;;0.70;;
27013;SDS011;14556;52.222;4.510;2024-02-14T14:47:15;2.10;;;0.87;;